sensor_id;sensor_type;location;lat;lon;timestamp;pressure;altitude;pressure_sealevel;temperature;humidity
70437;BME280;57877;39.750;-104.894;2022-10-16T00:01:31;84169.63;;;15.28;22.93
70437;BME280;57877;39.750;-104.894;2022-10-16T00:03:58;84170.25;;;16.33;22.20
70437;BME280;57877;39.750;-104.894;2022-10-16T00:06:23;84173.75;;;15.98;22.23
70437;BME280;57877;39.750;-104.894;2022-10-16T00:08:50;84175.61;;;16.41;22.00
70437;BME280;57877;39.750;-104.894;2022-10-16T00:11:17;84177.14;;;16.10;22.13
70437;BME280;57877;39.750;-104.894;2022-10-16T00:13:42;84180.02;;;16.66;23.22
70437;BME280;57877;39.750;-104.894;2022-10-16T00:16:07;84184.37;;;16.78;23.10
70437;BME280;57877;39.750;-104.894;2022-10-16T00:18:33;84185.03;;;16.59;22.96
70437;BME280;57877;39.750;-104.894;2022-10-16T00:21:03;84184.45;;;16.98;22.77
70437;BME280;57877;39.750;-104.894;2022-10-16T00:23:24;84190.36;;;16.73;22.79
70437;BME280;57877;39.750;-104.894;2022-10-16T00:25:55;84195.75;;;16.75;22.86
70437;BME280;57877;39.750;-104.894;2022-10-16T00:28:16;84198.83;;;16.64;23.41
70437;BME280;57877;39.750;-104.894;2022-10-16T00:33:08;84210.03;;;16.73;23.71
70437;BME280;57877;39.750;-104.894;2022-10-16T00:35:34;84213.16;;;16.26;23.63
70437;BME280;57877;39.750;-104.894;2022-10-16T00:38:00;84215.50;;;16.75;23.36
70437;BME280;57877;39.750;-104.894;2022-10-16T00:40:26;84222.11;;;16.53;23.76
70437;BME280;57877;39.750;-104.894;2022-10-16T00:42:52;84224.32;;;16.77;23.54
70437;BME280;57877;39.750;-104.894;2022-10-16T00:45:18;84228.75;;;16.46;23.86
70437;BME280;57877;39.750;-104.894;2022-10-16T00:47:45;84232.08;;;16.57;23.84
70437;BME280;57877;39.750;-104.894;2022-10-16T00:50:13;84233.93;;;16.62;24.14
70437;BME280;57877;39.750;-104.894;2022-10-16T00:52:37;84237.28;;;16.66;23.97
70437;BME280;57877;39.750;-104.894;2022-10-16T00:55:03;84243.95;;;16.78;24.36
70437;BME280;57877;39.750;-104.894;2022-10-16T00:57:28;84249.51;;;16.61;24.54
70437;BME280;57877;39.750;-104.894;2022-10-16T00:59:54;84253.83;;;16.56;24.42
70437;BME280;57877;39.750;-104.894;2022-10-16T01:02:20;84253.35;;;16.82;24.50
70437;BME280;57877;39.750;-104.894;2022-10-16T01:04:48;84259.31;;;16.84;24.59
70437;BME280;57877;39.750;-104.894;2022-10-16T01:07:17;84263.67;;;16.42;25.43
70437;BME280;57877;39.750;-104.894;2022-10-16T01:09:45;84269.97;;;16.02;26.13
70437;BME280;57877;39.750;-104.894;2022-10-16T01:12:10;84284.77;;;15.61;24.55
70437;BME280;57877;39.750;-104.894;2022-10-16T01:14:34;84290.64;;;14.10;25.97
70437;BME280;57877;39.750;-104.894;2022-10-16T01:17:00;84294.99;;;12.64;28.86
70437;BME280;57877;39.750;-104.894;2022-10-16T01:19:30;84304.04;;;11.90;31.09
70437;BME280;57877;39.750;-104.894;2022-10-16T01:21:48;84304.30;;;11.81;31.77
70437;BME280;57877;39.750;-104.894;2022-10-16T01:24:20;84307.56;;;11.69;32.04
70437;BME280;57877;39.750;-104.894;2022-10-16T01:29:08;84312.45;;;12.93;30.27
70437;BME280;57877;39.750;-104.894;2022-10-16T01:31:34;84312.75;;;12.93;29.75
70437;BME280;57877;39.750;-104.894;2022-10-16T01:34:02;84316.65;;;13.74;28.98
70437;BME280;57877;39.750;-104.894;2022-10-16T01:36:28;84325.26;;;12.87;29.98
70437;BME280;57877;39.750;-104.894;2022-10-16T01:38:52;84330.00;;;12.66;30.14
70437;BME280;57877;39.750;-104.894;2022-10-16T01:41:19;84334.83;;;13.47;29.06
70437;BME280;57877;39.750;-104.894;2022-10-16T01:43:43;84337.04;;;13.49;28.92
70437;BME280;57877;39.750;-104.894;2022-10-16T01:46:09;84340.09;;;13.38;28.87
70437;BME280;57877;39.750;-104.894;2022-10-16T01:48:34;84343.43;;;13.86;28.58
70437;BME280;57877;39.750;-104.894;2022-10-16T01:51:04;84347.34;;;13.05;29.23
70437;BME280;57877;39.750;-104.894;2022-10-16T01:53:26;84352.79;;;13.06;29.78
70437;BME280;57877;39.750;-104.894;2022-10-16T01:55:53;84357.70;;;12.14;31.20
70437;BME280;57877;39.750;-104.894;2022-10-16T01:58:17;84360.56;;;12.76;31.23
70437;BME280;57877;39.750;-104.894;2022-10-16T02:00:45;84364.30;;;10.88;33.79
70437;BME280;57877;39.750;-104.894;2022-10-16T02:03:12;84367.21;;;11.60;33.73
70437;BME280;57877;39.750;-104.894;2022-10-16T02:05:40;84369.35;;;11.65;33.45
70437;BME280;57877;39.750;-104.894;2022-10-16T02:08:01;84371.64;;;10.89;34.44
70437;BME280;57877;39.750;-104.894;2022-10-16T02:10:27;84376.55;;;12.09;33.45
70437;BME280;57877;39.750;-104.894;2022-10-16T02:12:58;84384.79;;;11.78;33.39
70437;BME280;57877;39.750;-104.894;2022-10-16T02:15:19;84390.21;;;12.32;32.57
70437;BME280;57877;39.750;-104.894;2022-10-16T02:17:45;84392.69;;;12.12;32.79
70437;BME280;57877;39.750;-104.894;2022-10-16T02:20:11;84391.68;;;11.60;33.79
70437;BME280;57877;39.750;-104.894;2022-10-16T02:22:40;84392.34;;;12.21;32.83
70437;BME280;57877;39.750;-104.894;2022-10-16T02:25:07;84398.20;;;11.86;33.57
70437;BME280;57877;39.750;-104.894;2022-10-16T02:27:34;84403.02;;;11.17;34.18
70437;BME280;57877;39.750;-104.894;2022-10-16T02:29:59;84405.54;;;11.62;34.37
70437;BME280;57877;39.750;-104.894;2022-10-16T02:32:24;84407.87;;;11.72;33.69
70437;BME280;57877;39.750;-104.894;2022-10-16T02:34:48;84405.79;;;11.59;33.76
70437;BME280;57877;39.750;-104.894;2022-10-16T02:37:13;84410.65;;;11.58;33.84
70437;BME280;57877;39.750;-104.894;2022-10-16T02:39:39;84413.67;;;11.31;34.20
70437;BME280;57877;39.750;-104.894;2022-10-16T02:42:06;84417.95;;;11.79;33.44
70437;BME280;57877;39.750;-104.894;2022-10-16T02:44:31;84423.42;;;10.64;35.84
70437;BME280;57877;39.750;-104.894;2022-10-16T02:46:56;84423.56;;;10.43;36.40
70437;BME280;57877;39.750;-104.894;2022-10-16T02:49:23;84425.91;;;10.51;36.22
70437;BME280;57877;39.750;-104.894;2022-10-16T02:51:49;84432.94;;;11.14;35.25
70437;BME280;57877;39.750;-104.894;2022-10-16T02:54:14;84441.29;;;10.49;35.89
70437;BME280;57877;39.750;-104.894;2022-10-16T02:56:40;84447.86;;;10.66;35.95
70437;BME280;57877;39.750;-104.894;2022-10-16T02:59:06;84451.26;;;10.84;35.39
70437;BME280;57877;39.750;-104.894;2022-10-16T03:01:32;84450.76;;;10.80;35.85
70437;BME280;57877;39.750;-104.894;2022-10-16T03:03:58;84457.43;;;11.52;34.56
70437;BME280;57877;39.750;-104.894;2022-10-16T03:06:24;84462.21;;;11.21;35.23
70437;BME280;57877;39.750;-104.894;2022-10-16T03:08:50;84463.82;;;11.56;34.51
70437;BME280;57877;39.750;-104.894;2022-10-16T03:11:16;84466.11;;;11.63;34.03
70437;BME280;57877;39.750;-104.894;2022-10-16T03:13:42;84473.77;;;12.07;33.26
70437;BME280;57877;39.750;-104.894;2022-10-16T03:16:08;84478.36;;;12.43;32.64
70437;BME280;57877;39.750;-104.894;2022-10-16T03:18:34;84485.07;;;12.40;32.41
70437;BME280;57877;39.750;-104.894;2022-10-16T03:21:00;84485.81;;;11.63;33.63
70437;BME280;57877;39.750;-104.894;2022-10-16T03:23:26;84489.60;;;11.83;33.61
70437;BME280;57877;39.750;-104.894;2022-10-16T03:25:52;84491.13;;;11.48;34.13
70437;BME280;57877;39.750;-104.894;2022-10-16T03:28:18;84488.07;;;11.18;34.50
70437;BME280;57877;39.750;-104.894;2022-10-16T03:30:44;84489.04;;;10.55;35.75
70437;BME280;57877;39.750;-104.894;2022-10-16T03:33:10;84494.79;;;11.36;34.34
70437;BME280;57877;39.750;-104.894;2022-10-16T03:35:36;84500.88;;;11.69;33.81
70437;BME280;57877;39.750;-104.894;2022-10-16T03:38:02;84504.17;;;11.91;33.16
70437;BME280;57877;39.750;-104.894;2022-10-16T03:40:28;84505.41;;;12.08;33.18
70437;BME280;57877;39.750;-104.894;2022-10-16T03:42:54;84510.33;;;11.97;33.09
70437;BME280;57877;39.750;-104.894;2022-10-16T03:45:20;84511.78;;;11.33;34.13
70437;BME280;57877;39.750;-104.894;2022-10-16T03:47:46;84520.57;;;12.11;32.69
70437;BME280;57877;39.750;-104.894;2022-10-16T03:50:12;84520.47;;;12.24;32.51
70437;BME280;57877;39.750;-104.894;2022-10-16T03:52:37;84520.05;;;12.07;33.12
70437;BME280;57877;39.750;-104.894;2022-10-16T03:55:04;84524.92;;;11.90;33.26
70437;BME280;57877;39.750;-104.894;2022-10-16T03:57:29;84529.17;;;12.36;32.50
70437;BME280;57877;39.750;-104.894;2022-10-16T03:59:55;84530.93;;;13.03;31.73
70437;BME280;57877;39.750;-104.894;2022-10-16T04:02:21;84532.65;;;12.14;32.84
70437;BME280;57877;39.750;-104.894;2022-10-16T04:04:47;84534.86;;;12.37;32.21
70437;BME280;57877;39.750;-104.894;2022-10-16T04:07:13;84535.04;;;13.06;31.74
70437;BME280;57877;39.750;-104.894;2022-10-16T04:09:39;84533.37;;;12.62;31.79
70437;BME280;57877;39.750;-104.894;2022-10-16T04:12:05;84534.04;;;12.85;31.40
70437;BME280;57877;39.750;-104.894;2022-10-16T04:14:31;84535.26;;;12.63;31.70
70437;BME280;57877;39.750;-104.894;2022-10-16T04:16:57;84537.46;;;11.54;32.93
70437;BME280;57877;39.750;-104.894;2022-10-16T04:19:23;84541.41;;;12.15;32.11
70437;BME280;57877;39.750;-104.894;2022-10-16T04:21:49;84542.91;;;12.59;31.45
70437;BME280;57877;39.750;-104.894;2022-10-16T04:24:15;84542.81;;;12.08;32.53
70437;BME280;57877;39.750;-104.894;2022-10-16T04:26:41;84541.25;;;12.23;31.53
70437;BME280;57877;39.750;-104.894;2022-10-16T04:29:07;84540.42;;;12.14;31.74
70437;BME280;57877;39.750;-104.894;2022-10-16T04:31:33;84540.03;;;13.01;30.79
70437;BME280;57877;39.750;-104.894;2022-10-16T04:33:59;84539.76;;;12.51;31.10
70437;BME280;57877;39.750;-104.894;2022-10-16T04:36:25;84541.66;;;12.66;30.84
70437;BME280;57877;39.750;-104.894;2022-10-16T04:38:51;84542.17;;;12.81;30.91
70437;BME280;57877;39.750;-104.894;2022-10-16T04:41:17;84542.58;;;12.09;31.53
70437;BME280;57877;39.750;-104.894;2022-10-16T04:43:43;84544.67;;;12.38;31.50
70437;BME280;57877;39.750;-104.894;2022-10-16T04:46:09;84545.62;;;12.81;30.73
70437;BME280;57877;39.750;-104.894;2022-10-16T04:48:35;84546.10;;;13.37;30.17
70437;BME280;57877;39.750;-104.894;2022-10-16T04:51:01;84544.28;;;13.29;29.93
70437;BME280;57877;39.750;-104.894;2022-10-16T04:53:27;84541.26;;;13.40;29.57
70437;BME280;57877;39.750;-104.894;2022-10-16T04:56:02;84544.97;;;13.02;29.84
70437;BME280;57877;39.750;-104.894;2022-10-16T04:58:19;84542.96;;;13.36;29.89
70437;BME280;57877;39.750;-104.894;2022-10-16T05:00:45;84547.00;;;13.69;29.62
70437;BME280;57877;39.750;-104.894;2022-10-16T05:03:10;84546.13;;;13.76;29.05
70437;BME280;57877;39.750;-104.894;2022-10-16T05:05:41;84546.36;;;13.59;28.89
70437;BME280;57877;39.750;-104.894;2022-10-16T05:08:03;84549.41;;;13.86;29.10
70437;BME280;57877;39.750;-104.894;2022-10-16T05:10:28;84548.61;;;13.58;28.79
70437;BME280;57877;39.750;-104.894;2022-10-16T05:12:54;84549.55;;;13.61;28.65
70437;BME280;57877;39.750;-104.894;2022-10-16T05:15:20;84549.05;;;12.95;29.13
70437;BME280;57877;39.750;-104.894;2022-10-16T05:17:46;84549.40;;;13.32;29.31
70437;BME280;57877;39.750;-104.894;2022-10-16T05:20:12;84549.05;;;13.33;29.22
70437;BME280;57877;39.750;-104.894;2022-10-16T05:22:38;84546.18;;;13.83;28.73
70437;BME280;57877;39.750;-104.894;2022-10-16T05:25:05;84545.09;;;13.40;28.82
70437;BME280;57877;39.750;-104.894;2022-10-16T05:27:30;84546.58;;;13.80;28.50
70437;BME280;57877;39.750;-104.894;2022-10-16T05:29:56;84543.90;;;12.93;29.36
70437;BME280;57877;39.750;-104.894;2022-10-16T05:32:22;84542.43;;;13.30;29.47
70437;BME280;57877;39.750;-104.894;2022-10-16T05:34:48;84542.10;;;13.29;29.29
70437;BME280;57877;39.750;-104.894;2022-10-16T05:37:14;84539.12;;;13.35;29.12
70437;BME280;57877;39.750;-104.894;2022-10-16T05:39:40;84537.36;;;13.27;29.20
70437;BME280;57877;39.750;-104.894;2022-10-16T05:42:06;84538.85;;;13.66;28.50
70437;BME280;57877;39.750;-104.894;2022-10-16T05:44:32;84541.33;;;13.35;29.08
70437;BME280;57877;39.750;-104.894;2022-10-16T05:46:58;84541.37;;;12.92;29.27
70437;BME280;57877;39.750;-104.894;2022-10-16T05:49:24;84537.27;;;13.24;29.10
70437;BME280;57877;39.750;-104.894;2022-10-16T05:51:50;84537.52;;;13.21;28.89
70437;BME280;57877;39.750;-104.894;2022-10-16T05:54:16;84538.76;;;13.14;29.11
70437;BME280;57877;39.750;-104.894;2022-10-16T05:56:42;84536.55;;;13.55;28.53
70437;BME280;57877;39.750;-104.894;2022-10-16T05:59:07;84536.82;;;13.57;28.66
70437;BME280;57877;39.750;-104.894;2022-10-16T06:01:33;84539.35;;;14.03;28.37
70437;BME280;57877;39.750;-104.894;2022-10-16T06:03:59;84538.10;;;13.88;28.06
70437;BME280;57877;39.750;-104.894;2022-10-16T06:06:27;84539.85;;;13.85;28.05
70437;BME280;57877;39.750;-104.894;2022-10-16T06:08:51;84536.33;;;13.57;28.19
70437;BME280;57877;39.750;-104.894;2022-10-16T06:11:19;84536.69;;;13.20;28.74
70437;BME280;57877;39.750;-104.894;2022-10-16T06:13:43;84535.70;;;13.98;28.56
70437;BME280;57877;39.750;-104.894;2022-10-16T06:16:10;84532.89;;;13.45;28.35
70437;BME280;57877;39.750;-104.894;2022-10-16T06:18:35;84533.30;;;13.52;28.28
70437;BME280;57877;39.750;-104.894;2022-10-16T06:21:08;84531.02;;;13.64;28.11
70437;BME280;57877;39.750;-104.894;2022-10-16T06:23:29;84533.72;;;13.85;28.17
70437;BME280;57877;39.750;-104.894;2022-10-16T06:25:52;84531.25;;;13.96;27.76
70437;BME280;57877;39.750;-104.894;2022-10-16T06:28:18;84530.05;;;13.75;28.07
70437;BME280;57877;39.750;-104.894;2022-10-16T06:30:44;84533.24;;;13.79;27.82
70437;BME280;57877;39.750;-104.894;2022-10-16T06:33:10;84532.84;;;13.25;28.55
70437;BME280;57877;39.750;-104.894;2022-10-16T06:35:36;84532.38;;;13.72;28.00
70437;BME280;57877;39.750;-104.894;2022-10-16T06:38:02;84535.75;;;13.86;28.40
70437;BME280;57877;39.750;-104.894;2022-10-16T06:40:28;84534.70;;;14.10;28.31
70437;BME280;57877;39.750;-104.894;2022-10-16T06:42:55;84535.56;;;13.83;27.90
70437;BME280;57877;39.750;-104.894;2022-10-16T06:45:20;84536.77;;;13.89;28.44
70437;BME280;57877;39.750;-104.894;2022-10-16T06:47:46;84537.37;;;13.87;28.10
70437;BME280;57877;39.750;-104.894;2022-10-16T06:50:12;84541.18;;;13.81;28.06
70437;BME280;57877;39.750;-104.894;2022-10-16T06:52:38;84541.36;;;13.99;28.40
70437;BME280;57877;39.750;-104.894;2022-10-16T06:55:04;84541.12;;;13.92;28.49
70437;BME280;57877;39.750;-104.894;2022-10-16T06:57:30;84541.36;;;13.47;28.29
70437;BME280;57877;39.750;-104.894;2022-10-16T06:59:56;84540.90;;;13.95;28.41
70437;BME280;57877;39.750;-104.894;2022-10-16T07:02:21;84538.30;;;13.45;28.66
70437;BME280;57877;39.750;-104.894;2022-10-16T07:04:47;84538.67;;;12.59;29.72
70437;BME280;57877;39.750;-104.894;2022-10-16T07:07:13;84539.75;;;12.77;29.86
70437;BME280;57877;39.750;-104.894;2022-10-16T07:09:40;84540.40;;;13.06;29.42
70437;BME280;57877;39.750;-104.894;2022-10-16T07:12:05;84538.57;;;13.09;29.29
70437;BME280;57877;39.750;-104.894;2022-10-16T07:14:31;84538.23;;;12.97;29.72
70437;BME280;57877;39.750;-104.894;2022-10-16T07:16:57;84538.17;;;12.61;29.98
70437;BME280;57877;39.750;-104.894;2022-10-16T07:19:23;84535.27;;;12.09;30.98
70437;BME280;57877;39.750;-104.894;2022-10-16T07:21:49;84536.65;;;11.86;31.51
70437;BME280;57877;39.750;-104.894;2022-10-16T07:24:16;84536.27;;;11.01;32.91
70437;BME280;57877;39.750;-104.894;2022-10-16T07:26:42;84539.24;;;11.80;32.51
70437;BME280;57877;39.750;-104.894;2022-10-16T07:29:09;84539.40;;;11.89;32.21
70437;BME280;57877;39.750;-104.894;2022-10-16T07:31:33;84539.73;;;11.96;31.99
70437;BME280;57877;39.750;-104.894;2022-10-16T07:33:59;84541.17;;;12.10;31.75
70437;BME280;57877;39.750;-104.894;2022-10-16T07:36:25;84541.08;;;12.06;31.57
70437;BME280;57877;39.750;-104.894;2022-10-16T07:38:51;84540.57;;;12.31;30.94
70437;BME280;57877;39.750;-104.894;2022-10-16T07:41:18;84541.75;;;12.25;31.03
70437;BME280;57877;39.750;-104.894;2022-10-16T07:43:46;84545.62;;;11.99;31.31
70437;BME280;57877;39.750;-104.894;2022-10-16T07:46:08;84542.67;;;12.02;31.19
70437;BME280;57877;39.750;-104.894;2022-10-16T07:48:35;84538.55;;;11.93;31.21
70437;BME280;57877;39.750;-104.894;2022-10-16T07:51:01;84534.60;;;12.07;30.96
70437;BME280;57877;39.750;-104.894;2022-10-16T07:53:26;84536.93;;;12.61;30.55
70437;BME280;57877;39.750;-104.894;2022-10-16T07:55:52;84535.13;;;13.10;29.89
70437;BME280;57877;39.750;-104.894;2022-10-16T07:58:18;84533.36;;;12.72;30.08
70437;BME280;57877;39.750;-104.894;2022-10-16T08:00:44;84536.39;;;13.10;29.75
70437;BME280;57877;39.750;-104.894;2022-10-16T08:03:10;84536.06;;;12.95;29.58
70437;BME280;57877;39.750;-104.894;2022-10-16T08:05:36;84536.23;;;13.07;29.41
70437;BME280;57877;39.750;-104.894;2022-10-16T08:08:02;84536.73;;;13.29;29.20
70437;BME280;57877;39.750;-104.894;2022-10-16T08:10:28;84540.35;;;13.09;29.52
70437;BME280;57877;39.750;-104.894;2022-10-16T08:12:54;84541.25;;;12.72;29.91
70437;BME280;57877;39.750;-104.894;2022-10-16T08:15:20;84542.36;;;12.53;30.21
70437;BME280;57877;39.750;-104.894;2022-10-16T08:20:12;84539.55;;;13.16;29.83
70437;BME280;57877;39.750;-104.894;2022-10-16T08:22:37;84539.69;;;12.68;30.01
70437;BME280;57877;39.750;-104.894;2022-10-16T08:25:03;84538.44;;;12.38;30.61
70437;BME280;57877;39.750;-104.894;2022-10-16T08:27:31;84538.83;;;12.26;30.82
70437;BME280;57877;39.750;-104.894;2022-10-16T08:29:55;84539.88;;;12.15;31.12
70437;BME280;57877;39.750;-104.894;2022-10-16T08:32:21;84541.73;;;12.38;30.57
70437;BME280;57877;39.750;-104.894;2022-10-16T08:34:47;84542.38;;;11.84;31.04
70437;BME280;57877;39.750;-104.894;2022-10-16T08:37:13;84543.65;;;11.70;32.06
70437;BME280;57877;39.750;-104.894;2022-10-16T08:39:39;84547.52;;;11.64;31.53
70437;BME280;57877;39.750;-104.894;2022-10-16T08:42:15;84546.53;;;11.93;31.40
70437;BME280;57877;39.750;-104.894;2022-10-16T08:44:40;84548.61;;;12.18;31.58
70437;BME280;57877;39.750;-104.894;2022-10-16T08:47:04;84545.95;;;12.20;30.95
70437;BME280;57877;39.750;-104.894;2022-10-16T08:49:22;84546.33;;;12.05;30.71
70437;BME280;57877;39.750;-104.894;2022-10-16T08:51:48;84548.29;;;12.18;30.42
70437;BME280;57877;39.750;-104.894;2022-10-16T08:54:23;84544.78;;;12.28;30.39
70437;BME280;57877;39.750;-104.894;2022-10-16T08:56:40;84540.22;;;12.17;30.46
70437;BME280;57877;39.750;-104.894;2022-10-16T08:59:10;84541.70;;;11.82;31.07
70437;BME280;57877;39.750;-104.894;2022-10-16T09:01:38;84541.82;;;12.25;30.47
70437;BME280;57877;39.750;-104.894;2022-10-16T09:04:14;84541.03;;;12.08;31.00
70437;BME280;57877;39.750;-104.894;2022-10-16T09:06:32;84539.96;;;12.10;30.89
70437;BME280;57877;39.750;-104.894;2022-10-16T09:09:01;84537.23;;;11.97;30.84
70437;BME280;57877;39.750;-104.894;2022-10-16T09:11:23;84537.77;;;11.98;30.94
70437;BME280;57877;39.750;-104.894;2022-10-16T09:13:49;84535.47;;;12.28;30.95
70437;BME280;57877;39.750;-104.894;2022-10-16T09:16:15;84534.58;;;11.98;31.25
70437;BME280;57877;39.750;-104.894;2022-10-16T09:18:37;84532.32;;;11.96;31.24
70437;BME280;57877;39.750;-104.894;2022-10-16T09:21:04;84529.01;;;11.74;31.48
70437;BME280;57877;39.750;-104.894;2022-10-16T09:23:27;84524.72;;;11.41;32.01
70437;BME280;57877;39.750;-104.894;2022-10-16T09:25:51;84520.06;;;11.24;32.73
70437;BME280;57877;39.750;-104.894;2022-10-16T09:28:18;84518.49;;;11.47;32.70
70437;BME280;57877;39.750;-104.894;2022-10-16T09:30:43;84521.86;;;11.53;32.51
70437;BME280;57877;39.750;-104.894;2022-10-16T09:33:11;84525.70;;;10.97;33.41
70437;BME280;57877;39.750;-104.894;2022-10-16T09:35:38;84524.31;;;10.75;33.87
70437;BME280;57877;39.750;-104.894;2022-10-16T09:38:01;84519.26;;;10.59;33.97
70437;BME280;57877;39.750;-104.894;2022-10-16T09:40:30;84519.11;;;9.83;35.04
70437;BME280;57877;39.750;-104.894;2022-10-16T09:43:10;84518.25;;;9.95;35.76
70437;BME280;57877;39.750;-104.894;2022-10-16T09:45:22;84518.89;;;10.36;34.93
70437;BME280;57877;39.750;-104.894;2022-10-16T09:47:45;84522.25;;;10.60;34.99
70437;BME280;57877;39.750;-104.894;2022-10-16T09:50:21;84527.02;;;9.86;35.81
70437;BME280;57877;39.750;-104.894;2022-10-16T09:52:37;84526.95;;;10.06;35.53
70437;BME280;57877;39.750;-104.894;2022-10-16T09:57:29;84526.32;;;10.22;35.50
70437;BME280;57877;39.750;-104.894;2022-10-16T09:59:56;84526.59;;;10.24;35.88
70437;BME280;57877;39.750;-104.894;2022-10-16T10:02:26;84525.60;;;9.99;36.37
70437;BME280;57877;39.750;-104.894;2022-10-16T10:04:50;84523.72;;;9.90;36.49
70437;BME280;57877;39.750;-104.894;2022-10-16T10:07:17;84527.97;;;10.19;36.01
70437;BME280;57877;39.750;-104.894;2022-10-16T10:09:39;84528.98;;;10.19;36.05
70437;BME280;57877;39.750;-104.894;2022-10-16T10:12:05;84532.10;;;10.00;35.66
70437;BME280;57877;39.750;-104.894;2022-10-16T10:14:34;84528.32;;;10.49;35.65
70437;BME280;57877;39.750;-104.894;2022-10-16T10:17:08;84529.16;;;10.33;35.92
70437;BME280;57877;39.750;-104.894;2022-10-16T10:19:23;84529.63;;;9.95;36.09
70437;BME280;57877;39.750;-104.894;2022-10-16T10:21:49;84530.38;;;10.00;35.97
70437;BME280;57877;39.750;-104.894;2022-10-16T10:24:15;84530.23;;;10.15;36.07
70437;BME280;57877;39.750;-104.894;2022-10-16T10:26:44;84529.37;;;10.04;35.95
70437;BME280;57877;39.750;-104.894;2022-10-16T10:29:08;84528.51;;;9.80;36.45
70437;BME280;57877;39.750;-104.894;2022-10-16T10:31:36;84530.55;;;10.20;36.05
70437;BME280;57877;39.750;-104.894;2022-10-16T10:34:04;84532.19;;;9.99;35.98
70437;BME280;57877;39.750;-104.894;2022-10-16T10:36:30;84532.97;;;9.99;35.54
70437;BME280;57877;39.750;-104.894;2022-10-16T10:38:52;84534.79;;;10.15;36.39
70437;BME280;57877;39.750;-104.894;2022-10-16T10:41:37;84534.87;;;9.85;36.22
70437;BME280;57877;39.750;-104.894;2022-10-16T10:43:50;84534.37;;;10.09;35.78
70437;BME280;57877;39.750;-104.894;2022-10-16T10:46:13;84539.76;;;9.97;35.41
70437;BME280;57877;39.750;-104.894;2022-10-16T10:48:43;84542.47;;;10.13;35.77
70437;BME280;57877;39.750;-104.894;2022-10-16T10:51:03;84540.69;;;9.85;36.35
70437;BME280;57877;39.750;-104.894;2022-10-16T10:53:35;84541.57;;;10.03;36.12
70437;BME280;57877;39.750;-104.894;2022-10-16T10:55:57;84543.73;;;10.15;36.03
70437;BME280;57877;39.750;-104.894;2022-10-16T11:00:50;84542.72;;;9.95;35.53
70437;BME280;57877;39.750;-104.894;2022-10-16T11:03:17;84544.35;;;9.94;35.93
70437;BME280;57877;39.750;-104.894;2022-10-16T11:05:41;84545.98;;;10.23;35.49
70437;BME280;57877;39.750;-104.894;2022-10-16T11:08:04;84545.65;;;9.85;35.77
70437;BME280;57877;39.750;-104.894;2022-10-16T11:10:30;84549.40;;;10.32;35.29
70437;BME280;57877;39.750;-104.894;2022-10-16T11:12:57;84547.54;;;9.84;35.80
70437;BME280;57877;39.750;-104.894;2022-10-16T11:15:21;84543.68;;;10.17;35.65
70437;BME280;57877;39.750;-104.894;2022-10-16T11:17:50;84544.67;;;10.35;35.41
70437;BME280;57877;39.750;-104.894;2022-10-16T11:20:16;84548.46;;;10.23;35.78
70437;BME280;57877;39.750;-104.894;2022-10-16T11:22:38;84551.29;;;10.09;35.66
70437;BME280;57877;39.750;-104.894;2022-10-16T11:25:11;84553.22;;;10.14;35.46
70437;BME280;57877;39.750;-104.894;2022-10-16T11:27:36;84552.68;;;9.81;36.31
70437;BME280;57877;39.750;-104.894;2022-10-16T11:29:58;84552.13;;;10.02;35.92
70437;BME280;57877;39.750;-104.894;2022-10-16T11:32:24;84556.98;;;10.01;35.74
70437;BME280;57877;39.750;-104.894;2022-10-16T11:34:52;84561.78;;;9.80;35.51
70437;BME280;57877;39.750;-104.894;2022-10-16T11:37:17;84562.45;;;10.22;35.76
70437;BME280;57877;39.750;-104.894;2022-10-16T11:39:39;84562.41;;;9.89;35.77
70437;BME280;57877;39.750;-104.894;2022-10-16T11:42:09;84559.84;;;10.00;36.13
70437;BME280;57877;39.750;-104.894;2022-10-16T11:44:38;84561.13;;;9.72;35.73
70437;BME280;57877;39.750;-104.894;2022-10-16T11:47:05;84559.78;;;10.11;35.45
70437;BME280;57877;39.750;-104.894;2022-10-16T11:49:25;84556.47;;;9.44;36.67
70437;BME280;57877;39.750;-104.894;2022-10-16T11:51:51;84551.33;;;9.53;36.06
70437;BME280;57877;39.750;-104.894;2022-10-16T11:54:20;84547.62;;;9.71;35.75
70437;BME280;57877;39.750;-104.894;2022-10-16T11:56:41;84548.72;;;10.22;35.52
70437;BME280;57877;39.750;-104.894;2022-10-16T11:59:12;84550.05;;;9.98;35.43
70437;BME280;57877;39.750;-104.894;2022-10-16T12:01:37;84551.96;;;9.61;36.23
70437;BME280;57877;39.750;-104.894;2022-10-16T12:04:10;84551.03;;;9.54;36.49
70437;BME280;57877;39.750;-104.894;2022-10-16T12:06:30;84552.22;;;9.34;36.72
70437;BME280;57877;39.750;-104.894;2022-10-16T12:08:50;84554.61;;;9.32;36.77
70437;BME280;57877;39.750;-104.894;2022-10-16T12:11:22;84555.55;;;9.85;36.30
70437;BME280;57877;39.750;-104.894;2022-10-16T12:13:43;84558.33;;;9.49;36.33
70437;BME280;57877;39.750;-104.894;2022-10-16T12:18:33;84558.70;;;9.91;36.27
70437;BME280;57877;39.750;-104.894;2022-10-16T12:21:00;84560.04;;;9.47;37.05
70437;BME280;57877;39.750;-104.894;2022-10-16T12:23:25;84561.84;;;9.57;36.90
70437;BME280;57877;39.750;-104.894;2022-10-16T12:25:55;84566.35;;;10.03;36.11
70437;BME280;57877;39.750;-104.894;2022-10-16T12:28:21;84572.56;;;10.00;35.64
70437;BME280;57877;39.750;-104.894;2022-10-16T12:30:51;84574.08;;;10.19;35.77
70437;BME280;57877;39.750;-104.894;2022-10-16T12:33:19;84574.67;;;10.34;35.53
70437;BME280;57877;39.750;-104.894;2022-10-16T12:35:43;84576.31;;;10.51;35.13
70437;BME280;57877;39.750;-104.894;2022-10-16T12:38:12;84580.59;;;10.72;34.76